createdAt,value
2016-12-01T00:00:07.668Z,967.33
2016-12-01T00:01:08.225Z,967.30
2016-12-01T00:02:08.003Z,967.31
2016-12-01T00:03:08.127Z,967.33
2016-12-01T00:04:08.213Z,967.37
2016-12-01T00:05:07.999Z,967.40
2016-12-01T00:06:07.590Z,967.49
2016-12-01T00:07:08.104Z,967.45
2016-12-01T00:08:07.657Z,967.39
2016-12-01T00:09:08.254Z,967.40
2016-12-01T00:10:07.762Z,967.31
2016-12-01T00:11:07.315Z,967.31
2016-12-01T00:12:07.994Z,967.35
2016-12-01T00:13:07.635Z,967.37
2016-12-01T00:14:08.261Z,967.41
2016-12-01T00:15:07.877Z,967.40
2016-12-01T00:16:07.398Z,967.42
2016-12-01T00:17:08.139Z,967.43
2016-12-01T00:18:07.685Z,967.38
2016-12-01T00:19:08.348Z,967.41
2016-12-01T00:20:08.032Z,967.36
2016-12-01T00:21:07.574Z,967.36
2016-12-01T00:22:08.103Z,967.39
2016-12-01T00:23:07.646Z,967.43
2016-12-01T00:24:08.479Z,967.33
2016-12-01T00:25:08.199Z,967.33
2016-12-01T00:26:07.751Z,967.33
2016-12-01T00:27:07.302Z,967.31
2016-12-01T00:28:07.857Z,967.33
2016-12-01T00:29:07.387Z,967.33
2016-12-01T00:30:07.984Z,967.36
2016-12-01T00:31:07.546Z,967.25
2016-12-01T00:32:08.146Z,967.31
2016-12-01T00:33:07.615Z,967.24
2016-12-01T00:34:08.162Z,967.25
2016-12-01T00:35:07.868Z,967.26
2016-12-01T00:36:07.341Z,967.20
2016-12-01T00:37:08.000Z,967.17
2016-12-01T00:38:07.446Z,967.12
2016-12-01T00:39:08.043Z,967.08
2016-12-01T00:40:07.550Z,967.09
2016-12-01T00:41:08.274Z,967.18
2016-12-01T00:42:07.754Z,967.19
2016-12-01T00:43:08.240Z,967.16
2016-12-01T00:44:07.994Z,967.21
2016-12-01T00:45:07.624Z,967.19
2016-12-01T00:46:08.150Z,967.21
2016-12-01T00:47:07.880Z,967.24
2016-12-01T00:48:07.426Z,967.28
2016-12-01T00:49:08.448Z,967.21
2016-12-01T00:50:08.116Z,967.20
2016-12-01T00:51:07.636Z,967.16
2016-12-01T00:52:08.233Z,967.19
2016-12-01T00:53:07.765Z,967.22
2016-12-01T00:54:07.877Z,967.25
2016-12-01T00:55:07.449Z,967.25
2016-12-01T00:56:08.376Z,967.14
2016-12-01T00:57:07.959Z,967.07
2016-12-01T00:58:07.506Z,967.01
2016-12-01T00:59:08.102Z,966.99
2016-12-01T01:00:07.733Z,967.07
2016-12-01T01:01:08.386Z,967.11
2016-12-01T01:02:08.260Z,967.16
2016-12-01T01:03:08.008Z,967.23
2016-12-01T01:04:07.959Z,967.23
2016-12-01T01:05:07.575Z,967.22
2016-12-01T01:06:08.257Z,967.25
2016-12-01T01:07:07.966Z,967.23
2016-12-01T01:08:07.759Z,967.21
2016-12-01T01:09:07.339Z,967.19
2016-12-01T01:10:07.878Z,967.17
2016-12-01T01:11:07.353Z,967.17
2016-12-01T01:12:07.823Z,967.19
2016-12-01T01:13:08.123Z,967.19
2016-12-01T01:14:07.971Z,967.23
2016-12-01T01:15:07.557Z,967.16
2016-12-01T01:16:08.009Z,967.19
2016-12-01T01:17:08.177Z,967.18
2016-12-01T01:18:07.821Z,967.12
2016-12-01T01:19:07.300Z,967.07
2016-12-01T01:20:07.916Z,967.02
2016-12-01T01:21:07.477Z,967.01
2016-12-01T01:22:09.422Z,967.13
2016-12-01T01:23:08.330Z,967.08
2016-12-01T01:24:08.048Z,967.04
2016-12-01T01:25:07.644Z,967.07
2016-12-01T01:26:08.268Z,967.04
2016-12-01T01:27:07.838Z,967.06
2016-12-01T01:28:07.556Z,967.04
2016-12-01T01:29:08.150Z,967.03
2016-12-01T01:30:08.168Z,967.04
2016-12-01T01:31:07.739Z,967.03
2016-12-01T01:32:08.246Z,967.04
2016-12-01T01:33:08.209Z,967.03
2016-12-01T01:34:08.226Z,966.98
2016-12-01T01:35:07.782Z,966.93
2016-12-01T01:36:07.323Z,966.95
2016-12-01T01:37:09.225Z,966.89
2016-12-01T01:38:07.737Z,966.89
2016-12-01T01:39:07.478Z,966.86
2016-12-01T01:40:08.156Z,966.90
2016-12-01T01:41:07.644Z,966.84
2016-12-01T01:42:08.139Z,966.88
2016-12-01T01:43:07.589Z,966.83
2016-12-01T01:44:08.105Z,966.82
2016-12-01T01:45:07.630Z,966.84
2016-12-01T01:46:08.327Z,966.81
2016-12-01T01:47:08.000Z,966.84
2016-12-01T01:48:07.564Z,966.84
2016-12-01T01:49:08.724Z,966.91
2016-12-01T01:50:08.377Z,966.94
2016-12-01T01:51:08.291Z,966.95
2016-12-01T01:52:07.438Z,966.94
2016-12-01T01:53:07.893Z,966.95
2016-12-01T01:54:07.313Z,966.92
2016-12-01T01:55:08.134Z,966.90
2016-12-01T01:56:07.387Z,966.90
2016-12-01T01:57:07.898Z,966.87
2016-12-01T01:58:08.060Z,966.81
2016-12-01T01:59:07.982Z,966.82
2016-12-01T02:00:07.607Z,966.85
2016-12-01T02:01:07.493Z,966.81
2016-12-01T02:02:07.385Z,966.84
2016-12-01T02:03:07.935Z,966.87
2016-12-01T02:04:08.336Z,966.86
2016-12-01T02:05:07.925Z,966.83
2016-12-01T02:06:07.698Z,966.83
2016-12-01T02:07:08.150Z,966.85
2016-12-01T02:08:08.021Z,966.83
2016-12-01T02:09:07.676Z,966.84
2016-12-01T02:10:07.418Z,966.85
2016-12-01T02:11:08.227Z,966.84
2016-12-01T02:12:07.816Z,966.79
2016-12-01T02:13:07.717Z,966.81
2016-12-01T02:14:08.182Z,966.79
2016-12-01T02:15:07.416Z,966.78
2016-12-01T02:16:07.902Z,966.79
2016-12-01T02:17:07.686Z,966.78
2016-12-01T02:18:08.176Z,966.82
2016-12-01T02:19:07.554Z,966.85
2016-12-01T02:20:07.341Z,966.86
2016-12-01T02:21:08.185Z,966.92
2016-12-01T02:22:07.657Z,966.91
2016-12-01T02:23:08.254Z,966.90
2016-12-01T02:24:07.789Z,966.81
2016-12-01T02:25:07.333Z,966.76
2016-12-01T02:26:07.482Z,966.77
2016-12-01T02:27:08.000Z,966.79
2016-12-01T02:28:07.567Z,966.76
2016-12-01T02:29:08.127Z,966.78
2016-12-01T02:30:08.110Z,966.74
2016-12-01T02:31:07.648Z,966.69
2016-12-01T02:32:13.849Z,966.70
2016-12-01T02:33:07.448Z,966.69
2016-12-01T02:34:08.030Z,966.69
2016-12-01T02:35:07.721Z,966.72
2016-12-01T02:36:08.257Z,966.71
2016-12-01T02:37:07.961Z,966.72
2016-12-01T02:38:07.967Z,966.75
2016-12-01T02:39:07.773Z,966.77
2016-12-01T02:40:07.290Z,966.86
2016-12-01T02:41:08.113Z,966.81
2016-12-01T02:42:07.422Z,966.79
2016-12-01T02:43:08.266Z,966.79
2016-12-01T02:44:07.853Z,966.79
2016-12-01T02:45:07.473Z,966.81
2016-12-01T02:46:07.976Z,966.75
2016-12-01T02:47:07.604Z,966.75
2016-12-01T02:48:07.332Z,966.77
2016-12-01T02:49:07.900Z,966.76
2016-12-01T02:50:07.350Z,966.74
2016-12-01T02:51:07.859Z,966.76
2016-12-01T02:52:07.556Z,966.81
2016-12-01T02:53:07.838Z,966.78
2016-12-01T02:54:08.040Z,966.81
2016-12-01T02:55:07.759Z,966.80
2016-12-01T02:56:07.294Z,966.83
2016-12-01T02:57:07.746Z,966.77
2016-12-01T02:58:07.673Z,966.78
2016-12-01T02:59:08.294Z,966.76
2016-12-01T03:00:07.968Z,966.74
2016-12-01T03:01:07.588Z,966.78
2016-12-01T03:02:08.223Z,966.75
2016-12-01T03:03:07.947Z,966.79
2016-12-01T03:04:07.727Z,966.75
2016-12-01T03:05:08.273Z,966.76
2016-12-01T03:06:07.792Z,966.78
2016-12-01T03:07:07.369Z,966.84
2016-12-01T03:08:07.933Z,966.83
2016-12-01T03:09:07.796Z,966.80
2016-12-01T03:10:07.563Z,966.78
2016-12-01T03:11:08.413Z,966.77
2016-12-01T03:12:08.182Z,966.79
2016-12-01T03:13:07.729Z,966.74
2016-12-01T03:14:09.320Z,966.69
2016-12-01T03:15:08.046Z,966.71
2016-12-01T03:16:07.537Z,966.71
2016-12-01T03:17:08.285Z,966.69
2016-12-01T03:18:08.085Z,966.65
2016-12-01T03:19:07.677Z,966.62
2016-12-01T03:20:08.145Z,966.57
2016-12-01T03:21:07.691Z,966.57
2016-12-01T03:22:08.147Z,966.65
2016-12-01T03:23:08.150Z,966.58
2016-12-01T03:24:07.697Z,966.61
2016-12-01T03:25:09.268Z,966.61
2016-12-01T03:26:07.789Z,966.59
2016-12-01T03:27:07.295Z,966.63
2016-12-01T03:28:07.986Z,966.64
2016-12-01T03:29:07.539Z,966.67
2016-12-01T03:30:09.305Z,966.72
2016-12-01T03:31:08.132Z,966.75
2016-12-01T03:32:07.878Z,966.68
2016-12-01T03:33:07.491Z,966.69
2016-12-01T03:34:08.110Z,966.66
2016-12-01T03:35:08.971Z,966.65
2016-12-01T03:36:07.448Z,966.68
2016-12-01T03:37:07.965Z,966.70
2016-12-01T03:38:07.489Z,966.66
2016-12-01T03:39:07.977Z,966.69
2016-12-01T03:40:07.553Z,966.68
2016-12-01T03:41:08.256Z,966.73
2016-12-01T03:42:13.534Z,966.74
2016-12-01T03:43:08.197Z,966.73
2016-12-01T03:44:08.632Z,966.74
2016-12-01T03:45:07.643Z,966.71
2016-12-01T03:46:08.312Z,966.72
2016-12-01T03:47:07.897Z,966.68
2016-12-01T03:48:07.488Z,966.68
2016-12-01T03:49:08.028Z,966.65
2016-12-01T03:50:07.556Z,966.65
2016-12-01T03:51:08.163Z,966.64
2016-12-01T03:52:07.776Z,966.60
2016-12-01T03:53:07.562Z,966.62
2016-12-01T03:54:08.087Z,966.57
2016-12-01T03:55:08.204Z,966.66
2016-12-01T03:56:07.782Z,966.65
2016-12-01T03:57:07.445Z,966.69
2016-12-01T03:58:07.999Z,966.65
2016-12-01T03:59:07.956Z,966.64
2016-12-01T04:00:07.889Z,966.63
2016-12-01T04:01:07.399Z,966.57
2016-12-01T04:02:08.009Z,966.59
2016-12-01T04:03:07.947Z,966.55
2016-12-01T04:04:07.468Z,966.56
2016-12-01T04:05:08.012Z,966.48
2016-12-01T04:06:07.621Z,966.48
2016-12-01T04:07:08.219Z,966.46
2016-12-01T04:08:07.772Z,966.49
2016-12-01T04:09:07.326Z,966.49
2016-12-01T04:10:07.960Z,966.45
2016-12-01T04:11:07.512Z,966.44
2016-12-01T04:12:08.023Z,966.45
2016-12-01T04:13:07.879Z,966.55
2016-12-01T04:14:07.406Z,966.54
2016-12-01T04:15:07.873Z,966.56
2016-12-01T04:16:08.096Z,966.56
2016-12-01T04:17:07.719Z,966.53
2016-12-01T04:18:08.386Z,966.50
2016-12-01T04:19:07.827Z,966.53
2016-12-01T04:20:07.821Z,966.47
2016-12-01T04:21:07.398Z,966.47
2016-12-01T04:22:08.249Z,966.48
2016-12-01T04:23:07.938Z,966.45
2016-12-01T04:24:07.489Z,966.45
2016-12-01T04:25:08.066Z,966.45
2016-12-01T04:26:07.650Z,966.37
2016-12-01T04:27:08.245Z,966.32
2016-12-01T04:28:07.820Z,966.32
2016-12-01T04:29:07.316Z,966.32
2016-12-01T04:30:07.918Z,966.26
2016-12-01T04:31:07.435Z,966.27
2016-12-01T04:32:08.041Z,966.26
2016-12-01T04:33:07.774Z,966.28
2016-12-01T04:34:07.533Z,966.30
2016-12-01T04:35:07.997Z,966.27
2016-12-01T04:36:08.208Z,966.24
2016-12-01T04:37:07.442Z,966.29
2016-12-01T04:38:08.162Z,966.30
2016-12-01T04:39:07.731Z,966.34
2016-12-01T04:40:08.325Z,966.40
2016-12-01T04:41:07.869Z,966.40
2016-12-01T04:42:07.405Z,966.40
2016-12-01T04:43:08.024Z,966.38
2016-12-01T04:44:07.500Z,966.36
2016-12-01T04:45:08.054Z,966.32
2016-12-01T04:46:07.606Z,966.30
2016-12-01T04:47:08.207Z,966.23
2016-12-01T04:48:07.835Z,966.13
2016-12-01T04:49:07.427Z,966.10
2016-12-01T04:50:08.010Z,966.14
2016-12-01T04:51:07.562Z,966.17
2016-12-01T04:52:08.116Z,966.18
2016-12-01T04:53:07.739Z,966.12
2016-12-01T04:54:08.316Z,966.15
2016-12-01T04:55:08.001Z,966.13
2016-12-01T04:56:07.497Z,966.11
2016-12-01T04:57:08.378Z,966.08
2016-12-01T04:58:08.232Z,966.12
2016-12-01T04:59:07.863Z,966.12
2016-12-01T05:00:07.532Z,966.05
2016-12-01T05:01:08.969Z,966.04
2016-12-01T05:02:07.413Z,966.09
2016-12-01T05:03:07.983Z,966.03
2016-12-01T05:04:07.561Z,966.04
2016-12-01T05:05:08.052Z,965.99
2016-12-01T05:06:07.904Z,965.98
2016-12-01T05:07:07.379Z,965.91
2016-12-01T05:08:07.311Z,965.93
2016-12-01T05:09:08.263Z,965.88
2016-12-01T05:10:07.810Z,965.87
2016-12-01T05:11:07.261Z,965.84
2016-12-01T05:12:07.832Z,965.72
2016-12-01T05:13:07.253Z,965.77
2016-12-01T05:14:07.871Z,965.65
2016-12-01T05:15:07.421Z,965.64
2016-12-01T05:16:08.000Z,965.61
2016-12-01T05:17:07.610Z,965.59
2016-12-01T05:18:08.173Z,965.56
2016-12-01T05:19:22.318Z,965.57
2016-12-01T05:20:07.780Z,965.55
2016-12-01T05:21:07.682Z,965.52
2016-12-01T05:22:08.421Z,965.58
2016-12-01T05:23:08.042Z,965.56
2016-12-01T05:24:07.568Z,965.60
2016-12-01T05:25:10.419Z,965.69
2016-12-01T05:26:08.246Z,965.71
2016-12-01T05:27:07.997Z,965.75
2016-12-01T05:28:08.239Z,965.77
2016-12-01T05:29:07.804Z,965.81
2016-12-01T05:30:07.324Z,965.82
2016-12-01T05:31:07.806Z,965.84
2016-12-01T05:32:07.714Z,965.87
2016-12-01T05:33:07.774Z,965.89
2016-12-01T05:34:07.377Z,965.95
2016-12-01T05:35:08.030Z,965.93
2016-12-01T05:36:07.523Z,965.98
2016-12-01T05:37:08.150Z,965.94
2016-12-01T05:38:07.754Z,965.99
2016-12-01T05:39:07.246Z,965.96
2016-12-01T05:40:07.889Z,965.88
2016-12-01T05:41:07.386Z,965.82
2016-12-01T05:42:07.986Z,965.73
2016-12-01T05:43:07.470Z,965.76
2016-12-01T05:44:08.038Z,965.67
2016-12-01T05:45:07.564Z,965.67
2016-12-01T05:46:08.167Z,965.67
2016-12-01T05:47:07.766Z,965.65
2016-12-01T05:48:07.267Z,965.58
2016-12-01T05:49:07.877Z,965.49
2016-12-01T05:50:07.530Z,965.56
2016-12-01T05:51:08.120Z,965.51
2016-12-01T05:52:07.750Z,965.58
2016-12-01T05:53:08.420Z,965.67
2016-12-01T05:54:07.939Z,965.72
2016-12-01T05:55:07.700Z,965.75
2016-12-01T05:56:08.150Z,965.67
2016-12-01T05:57:08.276Z,965.66
2016-12-01T05:58:07.923Z,965.72
2016-12-01T05:59:07.393Z,965.79
2016-12-01T06:00:08.020Z,965.76
2016-12-01T06:01:13.131Z,965.75
2016-12-01T06:02:07.649Z,965.78
2016-12-01T06:03:08.310Z,965.78
2016-12-01T06:04:07.901Z,965.80
2016-12-01T06:05:07.493Z,965.83
2016-12-01T06:06:07.939Z,965.83
2016-12-01T06:07:09.116Z,965.79
2016-12-01T06:08:07.677Z,965.72
2016-12-01T06:09:08.243Z,965.62
2016-12-01T06:10:07.884Z,965.55
2016-12-01T06:11:07.356Z,965.52
2016-12-01T06:12:07.912Z,965.54
2016-12-01T06:13:07.449Z,965.44
2016-12-01T06:14:08.136Z,965.49
2016-12-01T06:15:08.026Z,965.52
2016-12-01T06:16:07.688Z,965.52
2016-12-01T06:17:08.484Z,965.45
2016-12-01T06:18:08.108Z,965.48
2016-12-01T06:19:07.718Z,965.51
2016-12-01T06:20:08.367Z,965.53
2016-12-01T06:21:07.989Z,965.49
2016-12-01T06:22:07.496Z,965.47
2016-12-01T06:23:08.171Z,965.41
2016-12-01T06:24:07.719Z,965.41
2016-12-01T06:25:08.425Z,965.32
2016-12-01T06:26:07.939Z,965.31
2016-12-01T06:27:07.523Z,965.35
2016-12-01T06:28:08.179Z,965.32
2016-12-01T06:29:07.696Z,965.38
2016-12-01T06:30:08.367Z,965.33
2016-12-01T06:31:07.858Z,965.37
2016-12-01T06:32:08.078Z,965.37
2016-12-01T06:33:07.628Z,965.40
2016-12-01T06:34:08.292Z,965.51
2016-12-01T06:35:07.925Z,965.41
2016-12-01T06:36:07.650Z,965.40
2016-12-01T06:37:08.242Z,965.44
2016-12-01T06:38:07.843Z,965.48
2016-12-01T06:39:07.408Z,965.50
2016-12-01T06:40:07.988Z,965.54
2016-12-01T06:41:07.610Z,965.51
2016-12-01T06:42:08.273Z,965.49
2016-12-01T06:43:07.843Z,965.54
2016-12-01T06:44:07.428Z,965.54
2016-12-01T06:45:07.976Z,965.51
2016-12-01T06:46:08.199Z,965.53
2016-12-01T06:47:07.806Z,965.53
2016-12-01T06:48:07.271Z,965.53
2016-12-01T06:49:07.938Z,965.50
2016-12-01T06:50:07.415Z,965.53
2016-12-01T06:51:08.061Z,965.53
2016-12-01T06:52:07.635Z,965.54
2016-12-01T06:53:08.250Z,965.54
2016-12-01T06:54:07.809Z,965.54
2016-12-01T06:55:13.851Z,965.53
2016-12-01T06:56:07.522Z,965.52
2016-12-01T06:57:08.046Z,965.47
2016-12-01T06:58:07.547Z,965.48
2016-12-01T06:59:08.203Z,965.51
2016-12-01T07:00:07.764Z,965.50
2016-12-01T07:01:08.234Z,965.51
2016-12-01T07:02:07.778Z,965.54
2016-12-01T07:03:07.311Z,965.53
2016-12-01T07:04:07.885Z,965.58
2016-12-01T07:05:07.401Z,965.57
2016-12-01T07:06:08.048Z,965.58
2016-12-01T07:07:07.907Z,965.59
2016-12-01T07:08:07.549Z,965.58
2016-12-01T07:09:08.188Z,965.59
2016-12-01T07:10:07.797Z,965.62
2016-12-01T07:11:07.271Z,965.66
2016-12-01T07:12:07.848Z,965.69
2016-12-01T07:13:07.378Z,965.68
2016-12-01T07:14:08.060Z,965.63
2016-12-01T07:15:07.604Z,965.63
2016-12-01T07:16:08.224Z,965.62
2016-12-01T07:17:07.850Z,965.57
2016-12-01T07:18:08.206Z,965.57
2016-12-01T07:19:07.819Z,965.54
2016-12-01T07:20:07.306Z,965.56
2016-12-01T07:21:07.945Z,965.56
2016-12-01T07:22:07.525Z,965.55
2016-12-01T07:23:08.237Z,965.54
2016-12-01T07:24:07.825Z,965.54
2016-12-01T07:25:07.385Z,965.53
2016-12-01T07:26:07.840Z,965.53
2016-12-01T07:27:08.299Z,965.55
2016-12-01T07:28:07.890Z,965.54
2016-12-01T07:29:07.445Z,965.51
2016-12-01T07:30:08.075Z,965.56
2016-12-01T07:31:07.565Z,965.47
2016-12-01T07:32:08.189Z,965.42
2016-12-01T07:33:07.761Z,965.35
2016-12-01T07:34:07.368Z,965.35
2016-12-01T07:35:07.827Z,965.27
2016-12-01T07:36:07.334Z,965.31
2016-12-01T07:37:07.964Z,965.36
2016-12-01T07:38:07.471Z,965.29
2016-12-01T07:39:08.094Z,965.28
2016-12-01T07:40:07.788Z,965.29
2016-12-01T07:41:07.251Z,965.26
2016-12-01T07:42:07.744Z,965.24
2016-12-01T07:43:08.268Z,965.24
2016-12-01T07:44:07.838Z,965.20
2016-12-01T07:45:07.427Z,965.19
2016-12-01T07:46:08.039Z,965.16
2016-12-01T07:47:07.665Z,965.12
2016-12-01T07:48:08.314Z,965.15
2016-12-01T07:49:07.930Z,965.16
2016-12-01T07:50:07.704Z,965.12
2016-12-01T07:51:08.209Z,965.09
2016-12-01T07:52:08.365Z,965.05
2016-12-01T07:53:07.826Z,965.04
2016-12-01T07:54:07.482Z,965.04
2016-12-01T07:55:08.034Z,965.04
2016-12-01T07:56:14.256Z,965.02
2016-12-01T07:57:07.895Z,964.99
2016-12-01T07:58:07.464Z,964.92
2016-12-01T07:59:08.080Z,964.96
2016-12-01T08:00:07.756Z,964.88
2016-12-01T08:01:07.339Z,964.90
2016-12-01T08:02:08.417Z,964.88
2016-12-01T08:03:07.968Z,964.79
2016-12-01T08:04:07.569Z,964.81
2016-12-01T08:05:08.219Z,964.78
2016-12-01T08:06:07.830Z,964.83
2016-12-01T08:07:07.383Z,964.82
2016-12-01T08:08:07.963Z,964.82
2016-12-01T08:09:07.646Z,964.82
2016-12-01T08:10:08.224Z,964.76
2016-12-01T08:11:07.908Z,964.79
2016-12-01T08:12:13.074Z,964.75
2016-12-01T08:13:07.677Z,964.79
2016-12-01T08:14:08.325Z,964.77
2016-12-01T08:15:07.861Z,964.72
2016-12-01T08:16:07.378Z,964.72
2016-12-01T08:17:08.148Z,964.67
2016-12-01T08:18:07.638Z,964.75
2016-12-01T08:19:08.247Z,964.75
2016-12-01T08:20:07.732Z,964.72
2016-12-01T08:21:08.319Z,964.73
2016-12-01T08:22:07.890Z,964.70
2016-12-01T08:23:07.449Z,964.69
2016-12-01T08:24:07.959Z,964.68
2016-12-01T08:25:07.539Z,964.74
2016-12-01T08:26:08.160Z,964.72
2016-12-01T08:27:07.679Z,964.79
2016-12-01T08:28:08.255Z,964.77
2016-12-01T08:29:07.829Z,964.83
2016-12-01T08:30:07.316Z,964.82
2016-12-01T08:31:07.876Z,964.79
2016-12-01T08:32:07.406Z,964.76
2016-12-01T08:33:07.847Z,964.71
2016-12-01T08:34:07.649Z,964.72
2016-12-01T08:35:08.225Z,964.74
2016-12-01T08:36:07.709Z,964.75
2016-12-01T08:37:08.296Z,964.71
2016-12-01T08:38:08.006Z,964.71
2016-12-01T08:39:07.507Z,964.75
2016-12-01T08:40:08.142Z,964.76
2016-12-01T08:41:07.660Z,964.75
2016-12-01T08:42:08.309Z,964.73
2016-12-01T08:43:07.985Z,964.71
2016-12-01T08:44:07.498Z,964.69
2016-12-01T08:45:08.148Z,964.66
2016-12-01T08:46:07.666Z,964.64
2016-12-01T08:47:08.275Z,964.61
2016-12-01T08:48:07.909Z,964.64
2016-12-01T08:49:07.441Z,964.64
2016-12-01T08:50:07.938Z,964.65
2016-12-01T08:51:07.481Z,964.55
2016-12-01T08:52:08.096Z,964.53
2016-12-01T08:53:07.710Z,964.59
2016-12-01T08:54:08.258Z,964.58
2016-12-01T08:55:07.836Z,964.56
2016-12-01T08:56:07.361Z,964.54
2016-12-01T08:57:07.861Z,964.52
2016-12-01T08:58:07.348Z,964.52
2016-12-01T08:59:07.864Z,964.54
2016-12-01T09:00:07.389Z,964.51
2016-12-01T09:01:07.863Z,964.53
2016-12-01T09:02:07.485Z,964.56
2016-12-01T09:03:08.215Z,964.58
2016-12-01T09:04:07.799Z,964.63
2016-12-01T09:05:07.324Z,964.60
2016-12-01T09:06:07.990Z,964.62
2016-12-01T09:07:07.866Z,964.64
2016-12-01T09:08:07.363Z,964.65
2016-12-01T09:09:07.968Z,964.70
2016-12-01T09:10:07.453Z,964.69
2016-12-01T09:11:07.947Z,964.73
2016-12-01T09:12:07.409Z,964.77
2016-12-01T09:13:07.957Z,964.67
2016-12-01T09:14:07.625Z,964.63
2016-12-01T09:15:08.116Z,964.63
2016-12-01T09:16:07.626Z,964.59
2016-12-01T09:17:08.319Z,964.59
2016-12-01T09:18:07.850Z,964.60
2016-12-01T09:19:07.516Z,964.58
2016-12-01T09:20:08.033Z,964.60
2016-12-01T09:21:07.672Z,964.68
2016-12-01T09:22:08.245Z,964.67
2016-12-01T09:23:07.849Z,964.71
2016-12-01T09:24:07.378Z,964.67
2016-12-01T09:25:07.990Z,964.65
2016-12-01T09:26:08.362Z,964.67
2016-12-01T09:27:07.939Z,964.69
2016-12-01T09:28:07.586Z,964.62
2016-12-01T09:29:08.251Z,964.65
2016-12-01T09:30:07.828Z,964.64
2016-12-01T09:31:07.658Z,964.59
2016-12-01T09:32:08.248Z,964.62
2016-12-01T09:33:07.670Z,964.59
2016-12-01T09:34:08.340Z,964.59
2016-12-01T09:35:07.994Z,964.59
2016-12-01T09:36:07.574Z,964.58
2016-12-01T09:37:08.040Z,964.60
2016-12-01T09:38:07.571Z,964.52
2016-12-01T09:39:08.194Z,964.44
2016-12-01T09:40:07.719Z,964.48
2016-12-01T09:41:08.337Z,964.41
2016-12-01T09:42:08.002Z,964.38
2016-12-01T09:43:07.416Z,964.28
2016-12-01T09:44:07.668Z,964.27
2016-12-01T09:45:08.279Z,964.23
2016-12-01T09:46:07.977Z,964.22
2016-12-01T09:47:07.585Z,964.19
2016-12-01T09:48:08.098Z,964.17
2016-12-01T09:49:07.676Z,964.21
2016-12-01T09:50:08.320Z,964.20
2016-12-01T09:51:07.831Z,964.23
2016-12-01T09:52:07.300Z,964.22
2016-12-01T09:53:13.439Z,964.21
2016-12-01T09:54:07.989Z,964.20
2016-12-01T09:55:07.616Z,964.16
2016-12-01T09:56:08.193Z,964.18
2016-12-01T09:57:07.790Z,964.13
2016-12-01T09:58:07.332Z,964.08
2016-12-01T09:59:07.922Z,964.06
2016-12-01T10:00:07.437Z,964.07
2016-12-01T10:01:07.958Z,964.07
2016-12-01T10:02:07.544Z,964.09
2016-12-01T10:03:08.065Z,964.08
2016-12-01T10:04:07.512Z,964.07
2016-12-01T10:05:08.171Z,964.10
2016-12-01T10:06:07.738Z,964.04
2016-12-01T10:07:08.370Z,963.97
2016-12-01T10:08:08.010Z,963.94
2016-12-01T10:09:07.560Z,963.97
2016-12-01T10:10:08.227Z,963.92
2016-12-01T10:11:07.872Z,963.95
2016-12-01T10:12:07.378Z,964.00
2016-12-01T10:13:07.951Z,963.90
2016-12-01T10:14:07.484Z,963.92
2016-12-01T10:15:08.116Z,963.93
2016-12-01T10:16:07.598Z,963.92
2016-12-01T10:17:08.291Z,963.90
2016-12-01T10:18:08.001Z,963.94
2016-12-01T10:19:07.577Z,963.89
2016-12-01T10:20:08.298Z,963.87
2016-12-01T10:21:07.879Z,963.89
2016-12-01T10:22:07.450Z,963.85
2016-12-01T10:23:08.020Z,963.90
2016-12-01T10:24:07.549Z,963.86
2016-12-01T10:25:08.234Z,963.91
2016-12-01T10:26:07.801Z,963.88
2016-12-01T10:27:07.412Z,963.88
2016-12-01T10:28:07.908Z,963.91
2016-12-01T10:29:07.353Z,963.84
2016-12-01T10:30:07.987Z,963.80
2016-12-01T10:31:07.510Z,963.74
2016-12-01T10:32:08.833Z,963.73
2016-12-01T10:33:07.288Z,963.69
2016-12-01T10:34:07.889Z,963.64
2016-12-01T10:35:07.428Z,963.66
2016-12-01T10:36:07.986Z,963.67
2016-12-01T10:37:07.488Z,963.59
2016-12-01T10:38:08.130Z,963.58
2016-12-01T10:39:07.738Z,963.58
2016-12-01T10:40:08.379Z,963.54
2016-12-01T10:41:08.049Z,963.50
2016-12-01T10:42:07.730Z,963.46
2016-12-01T10:43:08.370Z,963.42
2016-12-01T10:44:07.946Z,963.41
2016-12-01T10:45:07.505Z,963.39
2016-12-01T10:46:08.109Z,963.44
2016-12-01T10:47:08.173Z,963.42
2016-12-01T10:48:07.667Z,963.37
2016-12-01T10:49:08.268Z,963.28
2016-12-01T10:50:07.862Z,963.32
2016-12-01T10:51:07.430Z,963.31
2016-12-01T10:52:08.071Z,963.23
2016-12-01T10:53:07.590Z,963.23
2016-12-01T10:54:08.315Z,963.25
2016-12-01T10:55:07.969Z,963.23
2016-12-01T10:56:07.559Z,963.21
2016-12-01T10:57:08.113Z,963.21
2016-12-01T10:58:08.331Z,963.15
2016-12-01T10:59:07.930Z,963.20
2016-12-01T11:00:07.391Z,963.18
2016-12-01T11:01:08.060Z,963.17
2016-12-01T11:02:07.619Z,963.10
2016-12-01T11:03:08.216Z,963.16
2016-12-01T11:04:07.819Z,963.11
2016-12-01T11:05:07.315Z,963.08
2016-12-01T11:06:07.908Z,963.06
2016-12-01T11:07:07.458Z,963.12
2016-12-01T11:08:08.020Z,963.10
2016-12-01T11:09:07.520Z,963.12
2016-12-01T11:10:08.140Z,963.09
2016-12-01T11:11:07.782Z,963.04
2016-12-01T11:12:07.275Z,962.99
2016-12-01T11:13:07.930Z,963.02
2016-12-01T11:14:07.491Z,962.97
2016-12-01T11:15:08.130Z,963.00
2016-12-01T11:16:07.662Z,963.01
2016-12-01T11:17:08.374Z,963.01
2016-12-01T11:18:07.996Z,962.93
2016-12-01T11:19:07.592Z,963.00
2016-12-01T11:20:08.256Z,962.98
2016-12-01T11:21:07.877Z,962.97
2016-12-01T11:22:07.459Z,962.90
2016-12-01T11:23:08.078Z,962.88
2016-12-01T11:24:07.594Z,962.87
2016-12-01T11:25:08.108Z,962.92
2016-12-01T11:26:07.617Z,962.89
2016-12-01T11:27:08.148Z,962.87
2016-12-01T11:28:07.769Z,962.88
2016-12-01T11:29:07.349Z,962.90
2016-12-01T11:30:07.960Z,962.86
2016-12-01T11:31:07.562Z,962.90
2016-12-01T11:32:08.228Z,962.92
2016-12-01T11:33:07.743Z,962.93
2016-12-01T11:34:08.442Z,962.92
2016-12-01T11:35:08.090Z,962.90
2016-12-01T11:36:07.750Z,962.91
2016-12-01T11:37:08.304Z,962.92
2016-12-01T11:38:07.798Z,962.94
2016-12-01T11:39:07.402Z,962.89
2016-12-01T11:40:07.907Z,962.90
2016-12-01T11:41:07.490Z,962.81
2016-12-01T11:42:08.118Z,962.79
2016-12-01T11:43:07.666Z,962.81
2016-12-01T11:44:08.337Z,962.82
2016-12-01T11:45:07.874Z,962.80
2016-12-01T11:46:07.464Z,962.75
2016-12-01T11:47:08.040Z,962.68
2016-12-01T11:48:07.612Z,962.66
2016-12-01T11:49:08.195Z,962.54
2016-12-01T11:50:07.828Z,962.53
2016-12-01T11:51:07.590Z,962.47
2016-12-01T11:52:08.154Z,962.50
2016-12-01T11:53:07.766Z,962.46
2016-12-01T11:54:07.301Z,962.45
2016-12-01T11:55:07.891Z,962.40
2016-12-01T11:56:07.385Z,962.40
2016-12-01T11:57:08.014Z,962.37
2016-12-01T11:58:07.639Z,962.38
2016-12-01T11:59:08.208Z,962.29
2016-12-01T12:00:07.791Z,962.33
2016-12-01T12:01:07.364Z,962.34
2016-12-01T12:02:07.940Z,962.29
2016-12-01T12:03:07.515Z,962.30
2016-12-01T12:04:08.183Z,962.36
2016-12-01T12:05:07.713Z,962.36
2016-12-01T12:06:08.332Z,962.34
2016-12-01T12:07:07.974Z,962.35
2016-12-01T12:08:07.513Z,962.32
2016-12-01T12:09:08.215Z,962.28
2016-12-01T12:10:07.773Z,962.27
2016-12-01T12:11:07.354Z,962.26
2016-12-01T12:12:07.917Z,962.22
2016-12-01T12:13:07.397Z,962.22
2016-12-01T12:14:07.978Z,962.14
2016-12-01T12:15:07.485Z,962.23
2016-12-01T12:16:08.075Z,962.26
2016-12-01T12:17:07.717Z,962.22
2016-12-01T12:18:08.362Z,962.29
2016-12-01T12:19:07.876Z,962.27
2016-12-01T12:20:07.379Z,962.21
2016-12-01T12:21:07.980Z,962.23
2016-12-01T12:22:07.559Z,962.22
2016-12-01T12:23:08.274Z,962.16
2016-12-01T12:24:07.833Z,962.25
2016-12-01T12:25:07.361Z,962.17
2016-12-01T12:26:07.989Z,962.28
2016-12-01T12:27:07.652Z,962.26
2016-12-01T12:28:08.211Z,962.21